Time;durP1;ratioP1;P1;durP2;ratioP2;P2;SDS_P1;SDS_P2;PMS_P1;PMS_P2;Temp;Humidity;BMP_temperature;BMP_pressure;BME280_temperature;BME280_humidity;BME280_pressure;Samples;Min_cycle;Max_cycle;Signal;HPM_P1;HPM_P2
2021/09/07 00:01:24;;;;;;;0.70;0.60;;;;;;;14.59;100.00;38254.03;6276377;22;20939;-74
2021/09/07 00:03:52;;;;;;;0.73;0.67;;;;;;;14.61;100.00;37896.53;6250069;22;20373;-74
2021/09/07 00:06:19;;;;;;;0.70;0.70;;;;;;;14.59;100.00;37602.28;6276084;22;20543;-74
2021/09/07 00:08:46;;;;;;;0.70;0.60;;;;;;;14.58;100.00;37422.00;6249133;22;20757;-74
2021/09/07 00:11:16;;;;;;;1.40;0.90;;;;;;;14.57;100.00;37131.78;6276732;22;20437;-74
2021/09/07 00:13:45;;;;;;;0.70;0.70;;;;;;;14.55;100.00;36845.38;6277119;22;20424;-74
2021/09/07 00:16:12;;;;;;;0.70;0.60;;;;;;;14.53;100.00;36761.94;6277083;22;20478;-74
2021/09/07 00:18:40;;;;;;;0.70;0.60;;;;;;;14.53;100.00;36505.78;6223952;22;20743;-74
2021/09/07 00:21:07;;;;;;;0.70;0.63;;;;;;;14.53;100.00;36028.47;6250123;22;20483;-73
2021/09/07 00:23:34;;;;;;;0.70;0.60;;;;;;;14.51;100.00;35727.50;6277192;22;20471;-75
2021/09/07 00:26:01;;;;;;;0.70;0.70;;;;;;;14.66;100.00;35744.72;6250371;22;20783;-75
2021/09/07 00:28:28;;;;;;;0.70;0.60;;;;;;;14.60;100.00;35466.38;6251354;22;20433;-75
2021/09/07 00:30:56;;;;;;;0.70;0.60;;;;;;;14.55;100.00;35358.03;6226425;22;20420;-75
2021/09/07 00:33:23;;;;;;;0.70;0.60;;;;;;;14.57;100.00;35351.63;6251539;22;20516;-75
2021/09/07 00:35:50;;;;;;;0.80;0.70;;;;;;;14.56;100.00;35435.91;6224712;22;20417;-75
2021/09/07 00:38:17;;;;;;;1.47;0.90;;;;;;;14.58;100.00;35493.63;6278399;22;20779;-75
2021/09/07 00:40:44;;;;;;;1.53;1.43;;;;;;;14.58;100.00;35375.69;6251372;22;20831;-75
2021/09/07 00:43:11;;;;;;;0.70;0.60;;;;;;;14.58;100.00;35480.47;6250738;22;20839;-75
2021/09/07 00:45:38;;;;;;;0.70;0.63;;;;;;;14.57;100.00;35310.59;6251455;22;20499;-75
2021/09/07 00:48:07;;;;;;;0.70;0.60;;;;;;;14.55;100.00;35304.50;6278623;22;20367;-75
2021/09/07 00:50:34;;;;;;;0.70;0.60;;;;;;;14.53;100.00;35059.34;6278352;22;20780;-75
2021/09/07 00:53:01;;;;;;;0.70;0.60;;;;;;;14.49;100.00;34293.28;6251121;22;20526;-75
2021/09/07 00:55:29;;;;;;;1.10;1.00;;;;;;;14.48;100.00;33708.69;6277027;22;20374;-75
2021/09/07 00:57:57;;;;;;;0.70;0.60;;;;;;;14.48;100.00;33047.38;6251031;22;20409;-75
2021/09/07 01:00:24;;;;;;;0.70;0.60;;;;;;;14.48;100.00;32609.66;6250471;22;20477;-75
2021/09/07 01:02:51;;;;;;;1.47;1.37;;;;;;;14.50;100.00;32162.31;6277119;22;20383;-75
2021/09/07 01:05:20;;;;;;;0.70;0.60;;;;;;;14.49;100.00;31542.28;6251660;22;20363;-75
2021/09/07 01:07:47;;;;;;;0.70;0.60;;;;;;;14.54;100.00;31081.16;6278439;22;20416;-75
2021/09/07 01:10:15;;;;;;;1.83;1.73;;;;;;;14.55;100.00;30600.38;6277631;22;20474;-75
2021/09/07 01:12:44;;;;;;;0.73;0.67;;;;;;;14.54;100.00;29883.31;6250870;22;20422;-75
2021/09/07 01:15:11;;;;;;;0.70;0.60;;;;;;;14.60;100.00;29495.06;6226033;22;20405;-75
2021/09/07 01:17:39;;;;;;;0.80;0.70;;;;;;;14.61;100.00;29006.75;6250443;22;20408;-75
2021/09/07 01:20:09;;;;;;;0.70;0.60;;;;;;;14.60;100.00;28333.22;6250257;22;20470;-76
2021/09/07 01:22:38;;;;;;;0.70;0.60;;;;;;;14.56;100.00;27698.94;6250564;22;20412;-75
2021/09/07 01:25:08;;;;;;;0.70;0.67;;;;;;;14.49;100.00;27048.75;6278327;22;20862;-75
2021/09/07 01:27:36;;;;;;;0.80;0.70;;;;;;;14.47;100.00;26597.69;6278429;22;20379;-75
2021/09/07 01:30:04;;;;;;;0.70;0.60;;;;;;;14.52;100.00;26341.72;6226161;22;20455;-75
2021/09/07 01:32:32;;;;;;;0.70;0.60;;;;;;;14.49;100.00;25808.72;6278170;22;20693;-75
2021/09/07 01:34:59;;;;;;;0.70;0.60;;;;;;;14.44;100.00;25374.03;6277137;22;20763;-75
2021/09/07 01:37:26;;;;;;;0.70;0.60;;;;;;;14.42;100.00;24811.13;6251034;22;20397;-75
2021/09/07 01:39:53;;;;;;;2.07;1.97;;;;;;;14.38;100.00;24132.19;6277793;22;20378;-75
2021/09/07 01:42:24;;;;;;;0.90;0.90;;;;;;;14.34;100.00;23563.31;6277769;22;20416;-75
2021/09/07 01:44:51;;;;;;;0.70;0.60;;;;;;;14.26;100.00;22987.72;6251332;22;20828;-75
2021/09/07 01:47:18;;;;;;;0.70;0.60;;;;;;;14.27;100.00;22735.63;6225931;22;20413;-75
2021/09/07 01:49:45;;;;;;;0.80;0.70;;;;;;;14.33;100.00;22393.16;6277551;22;20387;-75
2021/09/07 01:52:13;;;;;;;1.57;1.47;;;;;;;14.41;100.00;21962.81;6251104;22;20391;-75
2021/09/07 01:54:42;;;;;;;1.03;0.93;;;;;;;14.37;100.00;21238.72;6250617;22;20443;-75
2021/09/07 01:57:14;;;;;;;0.70;0.70;;;;;;;14.39;100.00;20512.22;6277691;22;20416;-75
2021/09/07 01:59:44;;;;;;;0.70;0.60;;;;;;;14.36;100.00;19872.94;6277444;22;20368;-75
2021/09/07 02:02:12;;;;;;;0.70;0.60;;;;;;;14.30;100.00;19179.56;6251021;22;20929;-75
2021/09/07 02:04:40;;;;;;;0.77;0.70;;;;;;;14.27;100.00;18800.97;6277676;22;20369;-75
2021/09/07 02:07:08;;;;;;;0.70;0.70;;;;;;;14.26;100.00;18367.31;6276867;22;20395;-75
2021/09/07 02:09:35;;;;;;;0.70;0.60;;;;;;;14.28;100.00;18120.56;6250741;22;20414;-75
2021/09/07 02:12:07;;;;;;;0.87;0.87;;;;;;;14.27;100.00;17567.19;6250535;22;20742;-75
2021/09/07 02:14:35;;;;;;;0.90;0.80;;;;;;;14.29;100.00;17210.69;6276871;22;20447;-75
2021/09/07 02:17:04;;;;;;;1.47;1.37;;;;;;;14.24;100.00;16763.13;6250740;22;20876;-75
2021/09/07 02:19:31;;;;;;;0.80;0.80;;;;;;;14.23;100.00;16500.31;6277040;22;20391;-75
2021/09/07 02:21:58;;;;;;;0.80;0.80;;;;;;;14.22;100.00;16357.47;6277791;22;20452;-75
2021/09/07 02:24:25;;;;;;;0.70;0.60;;;;;;;14.20;100.00;16066.19;6250031;22;20410;-75
2021/09/07 02:26:53;;;;;;;0.70;0.60;;;;;;;14.16;100.00;15688.03;6277667;22;20395;-75
2021/09/07 02:29:21;;;;;;;0.70;0.67;;;;;;;14.14;100.00;15284.81;6277647;22;20388;-75
2021/09/07 02:31:50;;;;;;;0.70;0.70;;;;;;;14.12;100.00;15054.97;6276053;22;20395;-75
2021/09/07 02:34:19;;;;;;;0.70;0.60;;;;;;;14.10;100.00;14738.59;6275100;22;20429;-75
2021/09/07 02:36:47;;;;;;;0.80;0.70;;;;;;;14.07;100.00;14355.94;6250338;22;20915;-75
2021/09/07 02:39:14;;;;;;;0.70;0.60;;;;;;;14.02;100.00;14341.84;6278001;22;20426;-75
2021/09/07 02:41:41;;;;;;;0.70;0.60;;;;;;;14.00;100.00;13977.13;6277543;22;20397;-75
2021/09/07 02:44:09;;;;;;;0.70;0.60;;;;;;;14.02;100.00;13771.53;6249875;22;20417;-75
2021/09/07 02:46:36;;;;;;;0.70;0.60;;;;;;;13.98;100.00;13533.84;6276979;22;20427;-75
2021/09/07 02:49:04;;;;;;;0.80;0.80;;;;;;;13.96;100.00;13581.63;6277054;22;20384;-75
2021/09/07 02:51:34;;;;;;;0.77;0.70;;;;;;;14.04;100.00;13502.22;6250374;22;20402;-75
2021/09/07 02:54:01;;;;;;;0.70;0.60;;;;;;;14.07;100.00;13274.03;6277301;22;20428;-75
2021/09/07 02:56:28;;;;;;;0.80;0.70;;;;;;;14.04;100.00;12929.78;6276707;22;20384;-75
2021/09/07 02:58:56;;;;;;;0.70;0.60;;;;;;;14.05;100.00;12644.94;6277410;22;20378;-75
2021/09/07 03:01:23;;;;;;;0.70;0.67;;;;;;;14.08;100.00;12238.69;6276635;22;20450;-75
2021/09/07 03:03:51;;;;;;;0.70;0.60;;;;;;;14.06;100.00;11732.03;6277061;22;20865;-75
2021/09/07 03:06:18;;;;;;;0.70;0.60;;;;;;;14.06;100.00;11292.03;6276160;22;20387;-75
2021/09/07 03:08:47;;;;;;;0.70;0.70;;;;;;;14.07;100.00;11106.50;6249648;22;20883;-75
2021/09/07 03:11:14;;;;;;;0.70;0.60;;;;;;;14.14;100.00;11019.22;6250421;22;20379;-75
2021/09/07 03:13:41;;;;;;;1.30;1.20;;;;;;;14.17;100.00;10847.00;6224325;22;20470;-75
2021/09/07 03:16:09;;;;;;;0.70;0.60;;;;;;;14.19;100.00;10733.03;6224255;22;20412;-75
2021/09/07 03:18:36;;;;;;;2.20;2.10;;;;;;;14.17;100.00;10582.63;6250193;22;20390;-75
2021/09/07 03:21:04;;;;;;;0.70;0.70;;;;;;;14.15;100.00;10358.22;6276673;22;20389;-74
2021/09/07 03:23:31;;;;;;;0.80;0.80;;;;;;;14.09;100.00;10433.19;6276854;22;20403;-75
2021/09/07 03:25:59;;;;;;;1.10;0.87;;;;;;;14.11;100.00;10354.72;6275563;22;20879;-75
2021/09/07 03:28:26;;;;;;;0.80;0.80;;;;;;;14.10;100.00;10308.84;6275952;22;20403;-75
2021/09/07 03:30:54;;;;;;;0.70;0.60;;;;;;;14.09;100.00;10158.47;6276950;22;20464;-75
2021/09/07 03:33:21;;;;;;;0.80;0.77;;;;;;;14.07;100.00;9962.34;6276179;22;20387;-75
2021/09/07 03:35:49;;;;;;;0.70;0.60;;;;;;;14.04;100.00;9842.06;6275690;22;20469;-75
2021/09/07 03:38:16;;;;;;;2.97;1.00;;;;;;;13.99;100.00;9589.50;6249405;22;20982;-75
2021/09/07 03:40:43;;;;;;;0.70;0.60;;;;;;;13.99;100.00;9342.94;6275783;22;20381;-75
2021/09/07 03:43:12;;;;;;;0.70;0.60;;;;;;;13.95;100.00;8940.53;6224416;22;20934;-75
2021/09/07 03:45:41;;;;;;;0.70;0.60;;;;;;;13.91;100.00;8850.75;6276269;22;20387;-75
2021/09/07 03:48:08;;;;;;;0.70;0.63;;;;;;;13.92;100.00;8751.88;6249253;22;20407;-75
2021/09/07 03:50:35;;;;;;;0.77;0.73;;;;;;;14.01;100.00;8860.50;6276139;22;20456;-75
2021/09/07 03:53:03;;;;;;;1.63;0.97;;;;;;;14.04;100.00;8746.69;6276468;22;20403;-75
2021/09/07 03:55:30;;;;;;;2.07;1.97;;;;;;;14.14;100.00;8682.59;6275524;22;20522;-75
2021/09/07 03:58:00;;;;;;;0.70;0.60;;;;;;;14.14;100.00;8405.69;6275745;22;20371;-75
2021/09/07 04:00:28;;;;;;;0.70;0.70;;;;;;;14.29;100.00;8223.00;6249420;22;20718;-75
2021/09/07 04:02:58;;;;;;;0.70;0.60;;;;;;;14.38;100.00;7942.66;6276024;22;20372;-75
2021/09/07 04:05:26;;;;;;;0.70;0.70;;;;;;;14.44;100.00;7933.78;6274995;22;20383;-75
2021/09/07 04:07:54;;;;;;;1.90;0.90;;;;;;;14.53;100.00;7922.66;6274738;22;20408;-75
2021/09/07 04:10:22;;;;;;;0.70;0.70;;;;;;;14.55;100.00;7879.81;6275691;22;20873;-75
2021/09/07 04:12:48;;;;;;;0.70;0.60;;;;;;;14.57;100.00;7959.03;6246035;22;20401;-75
2021/09/07 04:15:15;;;;;;;0.70;0.70;;;;;;;14.61;100.00;8074.38;6275230;22;20472;-75
2021/09/07 04:17:44;;;;;;;0.70;0.60;;;;;;;14.66;100.00;7950.66;6248746;22;20388;-75
2021/09/07 04:20:12;;;;;;;1.67;1.57;;;;;;;14.65;100.00;7881.78;6248456;22;20736;-75
2021/09/07 04:22:40;;;;;;;3.07;2.87;;;;;;;14.71;100.00;8216.28;6275632;22;20408;-75
2021/09/07 04:25:07;;;;;;;0.80;0.70;;;;;;;14.75;100.00;8270.41;6248130;22;20403;-75
2021/09/07 04:27:35;;;;;;;0.90;0.90;;;;;;;14.74;100.00;8361.78;6275380;22;20389;-75
2021/09/07 04:30:03;;;;;;;0.73;0.70;;;;;;;14.70;100.00;8371.25;6248093;22;20526;-75
2021/09/07 04:32:30;;;;;;;0.70;0.60;;;;;;;14.71;100.00;8595.19;6276558;22;20420;-75
2021/09/07 04:34:58;;;;;;;0.70;0.60;;;;;;;14.76;100.00;8814.94;6275787;22;20431;-75
2021/09/07 04:37:25;;;;;;;0.70;0.70;;;;;;;14.79;100.00;9136.31;6275781;22;20390;-75
2021/09/07 04:39:52;;;;;;;0.70;0.70;;;;;;;14.79;100.00;9472.22;6276512;22;20460;-75
2021/09/07 04:42:19;;;;;;;0.80;0.80;;;;;;;14.82;100.00;9813.94;6248563;22;20412;-75
2021/09/07 04:44:46;;;;;;;0.70;0.60;;;;;;;14.94;100.00;10285.16;6276329;22;20759;-75
2021/09/07 04:47:14;;;;;;;0.70;0.60;;;;;;;15.09;100.00;10757.13;6275916;22;20387;-75
2021/09/07 04:49:43;;;;;;;0.70;0.60;;;;;;;15.20;100.00;11335.63;6275700;22;20433;-75
2021/09/07 04:52:11;;;;;;;1.37;1.27;;;;;;;15.26;100.00;11923.31;6276283;22;20390;-74
2021/09/07 04:54:38;;;;;;;1.00;0.90;;;;;;;15.29;100.00;12393.13;6275578;22;20902;-75
2021/09/07 04:57:05;;;;;;;0.70;0.60;;;;;;;15.29;100.00;12818.72;6276348;22;20419;-75
2021/09/07 04:59:32;;;;;;;0.70;0.70;;;;;;;15.36;100.00;13517.00;6276265;22;20388;-75
2021/09/07 05:01:59;;;;;;;0.70;0.70;;;;;;;15.45;100.00;14287.47;6248078;22;20458;-75
2021/09/07 05:04:26;;;;;;;0.70;0.70;;;;;;;15.53;100.00;15016.91;6275755;22;20435;-75
2021/09/07 05:06:54;;;;;;;1.23;1.10;;;;;;;15.62;100.00;15793.25;6276396;22;20393;-75
2021/09/07 05:09:22;;;;;;;0.70;0.70;;;;;;;15.72;100.00;16432.28;6276120;22;20496;-74
2021/09/07 05:11:49;;;;;;;0.80;0.70;;;;;;;15.84;100.00;17438.06;6278089;22;20390;-75
2021/09/07 05:14:23;;;;;;;0.70;0.60;;;;;;;15.91;100.00;18299.16;6277873;22;20436;-75
2021/09/07 05:16:53;;;;;;;0.70;0.60;;;;;;;16.03;100.00;19134.66;6251933;22;20469;-75
2021/09/07 05:19:20;;;;;;;0.70;0.60;;;;;;;16.17;100.00;20273.22;6278031;22;20390;-75
2021/09/07 05:21:47;;;;;;;0.80;0.70;;;;;;;16.17;100.00;20987.44;6276937;22;20420;-75
2021/09/07 05:24:14;;;;;;;0.90;0.90;;;;;;;16.23;100.00;21642.28;6278060;22;20408;-75
2021/09/07 05:26:42;;;;;;;0.70;0.60;;;;;;;16.32;100.00;22947.31;6278330;22;20391;-75
2021/09/07 05:29:09;;;;;;;0.70;0.70;;;;;;;16.33;100.00;23751.97;6251005;22;20398;-75
2021/09/07 05:31:36;;;;;;;0.90;0.90;;;;;;;16.34;100.00;24654.72;6277896;22;20389;-75
2021/09/07 05:34:03;;;;;;;0.70;0.60;;;;;;;16.40;100.00;25518.91;6251401;22;20886;-75
2021/09/07 05:36:31;;;;;;;0.90;0.90;;;;;;;16.47;100.00;26280.91;6250063;22;20790;-75
2021/09/07 05:38:58;;;;;;;2.80;2.60;;;;;;;16.58;100.00;27210.00;6250146;22;20415;-75
2021/09/07 05:41:25;;;;;;;1.27;1.00;;;;;;;16.63;100.00;28044.38;6250665;22;20422;-75
2021/09/07 05:43:53;;;;;;;0.90;0.80;;;;;;;16.71;100.00;28895.31;6277911;22;20445;-75
2021/09/07 05:46:20;;;;;;;0.80;0.70;;;;;;;16.75;100.00;29529.25;6250493;22;20406;-75
2021/09/07 05:48:48;;;;;;;0.80;0.80;;;;;;;16.80;100.00;30441.72;6250306;22;20460;-75
2021/09/07 05:51:15;;;;;;;0.90;0.90;;;;;;;16.84;100.00;30811.44;6250188;22;20403;-75
2021/09/07 05:53:42;;;;;;;0.70;0.60;;;;;;;16.98;100.00;31680.09;6277303;22;20411;-75
2021/09/07 05:56:10;;;;;;;1.07;0.90;;;;;;;17.04;100.00;31765.88;6277733;22;20453;-75
2021/09/07 05:58:38;;;;;;;0.70;0.70;;;;;;;17.20;100.00;31595.03;6277280;22;20388;-75
2021/09/07 06:01:06;;;;;;;0.80;0.80;;;;;;;17.34;100.00;30795.59;6277232;22;20445;-75
2021/09/07 06:03:33;;;;;;;0.80;0.70;;;;;;;17.35;100.00;27608.91;6250540;22;20409;-75
2021/09/07 06:06:01;;;;;;;1.00;0.90;;;;;;;17.42;100.00;23159.25;6276851;22;20384;-75
2021/09/07 06:08:29;;;;;;;0.73;0.70;;;;;;;17.42;100.00;16790.91;6276829;22;20480;-74
2021/09/07 06:10:55;;;;;;;0.73;0.70;;;;;;;17.49;100.00;7341.78;6277342;22;20460;-75
2021/09/07 06:13:22;;;;;;;0.70;0.70;;;;;;;17.55;100.00;-4007.59;6277437;22;20722;-75
2021/09/07 06:15:51;;;;;;;2.50;2.33;;;;;;;17.57;100.00;-14101.22;6277504;22;20475;-75
2021/09/07 06:18:20;;;;;;;2.20;1.77;;;;;;;17.63;100.00;-20438.84;6276741;22;20424;-75
2021/09/07 06:20:47;;;;;;;1.00;0.90;;;;;;;17.71;100.00;-21162.28;6275877;22;20475;-75
2021/09/07 06:23:14;;;;;;;0.73;0.70;;;;;;;17.76;100.00;-21163.66;6276652;22;20739;-75
2021/09/07 06:25:42;;;;;;;1.10;1.00;;;;;;;17.86;100.00;-21166.28;6275344;22;20466;-75
2021/09/07 06:28:09;;;;;;;0.70;0.60;;;;;;;17.92;100.00;-21167.91;6249713;22;20405;-75
2021/09/07 06:30:37;;;;;;;0.90;0.80;;;;;;;17.98;100.00;-21169.56;6277721;22;20888;-75
2021/09/07 06:33:04;;;;;;;0.70;0.60;;;;;;;18.05;100.00;-21171.47;6277313;22;20480;-75
2021/09/07 06:35:32;;;;;;;1.40;1.00;;;;;;;18.01;100.00;-21170.38;6276846;22;20424;-75
2021/09/07 06:37:59;;;;;;;0.80;0.80;;;;;;;18.11;100.00;-21173.00;6249746;22;20429;-74
2021/09/07 06:40:26;;;;;;;1.87;1.77;;;;;;;18.35;100.00;-21179.56;6276855;22;20398;-75
2021/09/07 06:42:58;;;;;;;1.43;1.33;;;;;;;18.30;100.00;-21178.19;6276602;22;20835;-75
2021/09/07 06:45:28;;;;;;;1.47;1.37;;;;;;;18.42;100.00;-21181.22;6277835;22;20373;-75
2021/09/07 06:47:55;;;;;;;0.70;0.63;;;;;;;18.40;100.00;-21180.66;6249860;22;20394;-75
2021/09/07 06:50:22;;;;;;;0.80;0.80;;;;;;;18.47;100.00;-21182.56;6250004;22;20430;-75
2021/09/07 06:52:50;;;;;;;1.47;1.23;;;;;;;18.51;100.00;-21183.81;6249302;22;20944;-75
2021/09/07 06:55:17;;;;;;;4.00;1.00;;;;;;;18.58;100.00;-21185.59;6249461;22;20458;-74
2021/09/07 06:57:45;;;;;;;0.80;0.77;;;;;;;18.64;100.00;-21187.09;6276618;22;20460;-75
2021/09/07 07:00:12;;;;;;;0.80;0.80;;;;;;;18.66;100.00;-21187.78;6277055;22;20374;-75
2021/09/07 07:02:40;;;;;;;0.80;0.70;;;;;;;18.82;100.00;-21192.03;6275896;22;20363;-75
2021/09/07 07:05:09;;;;;;;0.70;0.60;;;;;;;18.86;100.00;-21193.13;6249965;22;20406;-75
2021/09/07 07:07:37;;;;;;;0.80;0.70;;;;;;;18.84;100.00;-21192.56;6277466;22;20467;-75
2021/09/07 07:10:06;;;;;;;0.87;0.87;;;;;;;18.79;100.00;-21191.22;6276304;22;20395;-74
2021/09/07 07:12:33;;;;;;;1.20;1.10;;;;;;;19.01;100.00;-21197.22;6276386;22;20852;-75
2021/09/07 07:15:06;;;;;;;1.10;1.00;;;;;;;19.03;100.00;-21197.63;6276399;22;20457;-75
2021/09/07 07:17:33;;;;;;;1.10;1.00;;;;;;;18.97;100.00;-21196.13;6276253;22;20387;-75
2021/09/07 07:20:00;;;;;;;0.77;0.67;;;;;;;19.04;100.00;-21197.91;6249784;22;20462;-75
2021/09/07 07:22:27;;;;;;;0.70;0.60;;;;;;;19.25;100.00;-21203.66;6276136;22;20848;-75
2021/09/07 07:24:54;;;;;;;0.70;0.70;;;;;;;19.34;100.00;-21205.84;6276706;22;20393;-75
2021/09/07 07:27:24;;;;;;;0.80;0.80;;;;;;;19.44;100.00;-21208.56;6276084;22;20393;-75
2021/09/07 07:29:51;;;;;;;1.20;1.10;;;;;;;19.41;100.00;-21207.75;6249106;22;20749;-75
2021/09/07 07:32:18;;;;;;;0.70;0.60;;;;;;;19.26;100.00;-21203.94;6276205;22;20858;-75
2021/09/07 07:34:48;;;;;;;1.20;1.10;;;;;;;19.35;100.00;-21206.25;6276749;22;20442;-74
2021/09/07 07:37:15;;;;;;;1.87;1.77;;;;;;;19.50;100.00;-21210.34;6249229;22;20448;-74
2021/09/07 07:39:43;;;;;;;0.90;0.90;;;;;;;19.62;100.00;-21213.34;6276197;22;20851;-74
2021/09/07 07:42:10;;;;;;;0.80;0.70;;;;;;;19.72;100.00;-21216.25;6276491;22;20381;-75
2021/09/07 07:44:38;;;;;;;1.07;0.97;;;;;;;19.76;100.00;-21217.31;6250096;22;20387;-75
2021/09/07 07:47:06;;;;;;;1.00;0.90;;;;;;;19.83;100.00;-21219.09;6250438;22;20395;-74
2021/09/07 07:49:33;;;;;;;1.10;1.00;;;;;;;20.02;100.00;-21224.16;6224453;22;20800;-75
2021/09/07 07:52:00;;;;;;;0.90;0.90;;;;;;;19.85;100.00;-21219.53;6249464;22;20452;-75
2021/09/07 07:54:27;;;;;;;1.37;1.27;;;;;;;19.92;100.00;-21221.44;6275820;22;20413;-75
2021/09/07 07:56:55;;;;;;;1.60;1.50;;;;;;;20.03;100.00;-21224.44;6276108;22;20907;-75
2021/09/07 07:59:22;;;;;;;0.83;0.77;;;;;;;20.16;100.00;-21228.00;6224454;22;20409;-75
2021/09/07 08:01:53;;;;;;;0.80;0.77;;;;;;;20.35;100.00;-21233.03;6250166;22;20441;-75
2021/09/07 08:04:20;;;;;;;1.63;1.53;;;;;;;20.15;100.00;-21227.72;6249046;22;20395;-75
2021/09/07 08:06:48;;;;;;;0.70;0.70;;;;;;;20.28;100.00;-21231.13;6276968;22;20450;-75
2021/09/07 08:09:16;;;;;;;1.07;0.90;;;;;;;20.71;100.00;-21242.59;6223979;22;20839;-75
2021/09/07 08:11:43;;;;;;;1.90;1.80;;;;;;;20.66;100.00;-21241.38;6276013;22;20407;-74
2021/09/07 08:14:10;;;;;;;0.80;0.70;;;;;;;20.84;100.00;-21246.00;6249256;22;20445;-74
2021/09/07 08:16:38;;;;;;;0.97;0.97;;;;;;;21.18;100.00;-21255.28;6222521;22;20477;-74
2021/09/07 08:19:07;;;;;;;0.80;0.80;;;;;;;21.36;100.00;-21259.94;6248575;22;20786;-74
2021/09/07 08:21:34;;;;;;;1.33;1.23;;;;;;;20.97;100.00;-21249.56;6276220;22;20440;-74
2021/09/07 08:24:06;;;;;;;1.13;1.03;;;;;;;21.28;100.00;-21257.75;6276370;22;20378;-74
2021/09/07 08:26:54;;;;;;;0.80;0.60;;;;;;;21.23;100.00;-21256.53;6276186;22;20356;-74
2021/09/07 08:29:22;;;;;;;1.17;0.80;;;;;;;21.77;100.00;-21270.84;6248490;22;20364;-74
2021/09/07 08:31:49;;;;;;;1.33;1.23;;;;;;;21.84;100.00;-21272.75;6275852;22;20394;-74
2021/09/07 08:34:17;;;;;;;0.80;0.77;;;;;;;21.73;100.00;-21269.75;6276619;22;20383;-74
2021/09/07 08:36:44;;;;;;;2.20;0.87;;;;;;;22.15;100.00;-21281.19;6249072;22;21039;-74
2021/09/07 08:39:12;;;;;;;0.80;0.80;;;;;;;22.12;100.00;-21280.38;6276556;22;20433;-74
2021/09/07 08:41:39;;;;;;;0.70;0.60;;;;;;;22.45;100.00;-21289.09;6248358;22;20415;-74
2021/09/07 08:44:06;;;;;;;1.73;1.63;;;;;;;22.52;100.00;-21291.00;6249509;22;20373;-75
2021/09/07 08:46:36;;;;;;;0.90;0.90;;;;;;;22.61;100.00;-21293.31;6278337;22;20384;-75
2021/09/07 08:49:13;;;;;;;0.80;0.70;;;;;;;22.49;100.00;-21290.19;6250281;22;20391;-75
2021/09/07 08:51:41;;;;;;;0.90;0.70;;;;;;;22.65;100.00;-21294.53;6251203;22;20444;-74
2021/09/07 08:54:09;;;;;;;0.77;0.70;;;;;;;22.82;100.00;-21298.88;6278321;22;20716;-74
2021/09/07 08:56:36;;;;;;;1.20;1.10;;;;;;;22.82;100.00;-21298.88;6277831;22;20399;-74
2021/09/07 08:59:06;;;;;;;0.90;0.80;;;;;;;22.49;100.00;-21290.19;6250463;22;20377;-75
2021/09/07 09:01:38;;;;;;;1.10;1.00;;;;;;;22.74;100.00;-21296.72;6251150;22;20879;-74
2021/09/07 09:04:24;;;;;;;3.00;2.27;;;;;;;22.89;100.00;-21300.78;6251614;22;20349;-75
2021/09/07 09:06:52;;;;;;;0.77;0.67;;;;;;;22.92;100.00;-21301.47;6276750;22;20384;-74
2021/09/07 09:09:19;;;;;;;0.73;0.60;;;;;;;23.08;100.00;-21305.84;6251411;22;20415;-75
2021/09/07 09:11:50;;;;;;;1.10;1.00;;;;;;;23.04;100.00;-21304.88;6278094;22;20847;-74
2021/09/07 09:14:36;;;;;;;0.90;0.87;;;;;;;23.06;100.00;-21305.44;6278210;22;20375;-75
2021/09/07 09:17:21;;;;;;;0.80;0.80;;;;;;;23.00;100.00;-21303.78;6277785;22;20385;-74
2021/09/07 09:19:52;;;;;;;2.07;1.73;;;;;;;23.31;100.00;-21311.97;6278300;22;20371;-74
2021/09/07 09:22:38;;;;;;;1.40;0.70;;;;;;;23.59;100.00;-21319.56;6277915;22;20777;-74
2021/09/07 09:25:24;;;;;;;0.97;0.87;;;;;;;23.59;100.00;-21319.44;6276552;22;20425;-74
2021/09/07 09:28:10;;;;;;;0.80;0.70;;;;;;;23.71;100.00;-21322.69;6251410;22;20386;-74
2021/09/07 09:30:39;;;;;;;3.20;1.00;;;;;;;24.15;100.00;-21334.25;6278278;22;20453;-74
2021/09/07 09:33:08;;;;;;;0.80;0.77;;;;;;;24.30;100.00;-21338.47;6250912;22;20883;-74
2021/09/07 09:35:47;;;;;;;1.40;1.30;;;;;;;24.31;100.00;-21338.59;6250987;22;20434;-74
2021/09/07 09:38:17;;;;;;;4.20;1.97;;;;;;;24.30;100.00;-21338.47;6250152;22;20759;-74
2021/09/07 09:40:51;;;;;;;0.70;0.60;;;;;;;24.29;100.00;-21338.03;6277030;22;20387;-74
2021/09/07 09:43:38;;;;;;;0.90;0.77;;;;;;;24.54;100.00;-21344.84;6250087;22;20402;-74
2021/09/07 09:46:19;;;;;;;0.80;0.70;;;;;;;25.06;100.00;-21358.53;6250592;22;20390;-75
2021/09/07 09:48:47;;;;;;;1.10;1.00;;;;;;;25.42;100.00;-21368.16;6277956;22;20776;-74
2021/09/07 09:51:17;;;;;;;1.47;1.37;;;;;;;26.20;100.00;-21388.75;6250951;22;20884;-75
2021/09/07 09:53:47;;;;;;;2.23;1.90;;;;;;;26.32;100.00;-21391.88;6250612;22;20427;-75
2021/09/07 09:56:15;;;;;;;1.83;1.13;;;;;;;26.86;100.00;-21406.34;6276580;22;20781;-75
2021/09/07 09:58:42;;;;;;;1.10;1.00;;;;;;;27.54;100.00;-21424.34;6277107;22;20458;-75
2021/09/07 10:01:10;;;;;;;1.47;0.97;;;;;;;27.52;100.00;-21423.66;6277124;22;20387;-75
2021/09/07 10:03:39;;;;;;;2.67;1.60;;;;;;;27.46;100.00;-21422.31;6250612;22;20847;-75
2021/09/07 10:06:07;;;;;;;1.30;1.20;;;;;;;28.32;100.00;-21444.88;6277646;22;20414;-75
2021/09/07 10:08:40;;;;;;;1.00;0.60;;;;;;;28.57;100.00;-21451.47;6250507;22;20415;-75
2021/09/07 10:11:12;;;;;;;1.93;1.37;;;;;;;29.05;100.00;-21464.28;6249663;22;20363;-73
2021/09/07 10:13:43;;;;;;;1.70;1.00;;;;;;;28.36;100.00;-21446.06;6248894;22;20399;-73
2021/09/07 10:16:14;;;;;;;1.23;1.07;;;;;;;28.56;100.00;-21451.34;6276627;22;20418;-73
2021/09/07 10:18:47;;;;;;;2.10;0.80;;;;;;;28.77;100.00;-21456.75;6249794;22;20398;-73
2021/09/07 10:24:04;;;;;;;1.53;0.90;;;;;;;28.75;100.00;-21456.34;6247741;22;20418;-73
2021/09/07 10:26:55;;;;;;;0.90;0.70;;;;;;;28.87;100.00;-21459.56;6247786;22;20438;-73
2021/09/07 10:29:41;;;;;;;1.20;0.83;;;;;;;29.80;100.00;-21484.09;6248004;22;20368;-74
2021/09/07 10:32:23;;;;;;;0.80;0.60;;;;;;;29.27;100.00;-21470.09;6222458;22;20402;-74
2021/09/07 10:35:08;;;;;;;1.17;0.77;;;;;;;29.97;100.00;-21488.41;6274972;22;20886;-74
2021/09/07 10:38:08;;;;;;;2.23;1.47;;;;;;;29.64;100.00;-21479.78;6276719;22;20434;-74
2021/09/07 10:40:53;;;;;;;2.97;0.87;;;;;;;29.83;100.00;-21484.91;6276823;22;20729;-74
2021/09/07 10:43:56;;;;;;;1.77;0.90;;;;;;;29.52;100.00;-21476.53;6276963;22;20375;-74
2021/09/07 10:46:42;;;;;;;1.30;0.87;;;;;;;29.55;100.00;-21477.34;6277554;22;20397;-74
2021/09/07 10:49:24;;;;;;;1.00;0.67;;;;;;;29.78;100.00;-21483.56;6277192;22;20395;-74
2021/09/07 10:52:18;;;;;;;1.50;1.40;;;;;;;29.71;100.00;-21481.53;6276928;22;20371;-74
2021/09/07 10:54:48;;;;;;;1.23;1.13;;;;;;;29.56;100.00;-21477.63;6277456;22;20374;-75
2021/09/07 10:57:49;;;;;;;0.80;0.50;;;;;;;29.94;100.00;-21487.59;6276404;22;20415;-74
2021/09/07 11:00:36;;;;;;;1.87;1.20;;;;;;;30.55;100.00;-21503.72;6249327;22;20406;-75
2021/09/07 11:03:09;;;;;;;0.90;0.70;;;;;;;30.21;100.00;-21494.88;6224701;22;20427;-75
2021/09/07 11:05:46;;;;;;;2.00;1.83;;;;;;;29.53;100.00;-21476.81;6250021;22;20486;-75
2021/09/07 11:08:29;;;;;;;1.20;0.80;;;;;;;30.23;100.00;-21495.41;6276013;22;20902;-74
2021/09/07 11:10:56;;;;;;;1.00;0.80;;;;;;;29.91;100.00;-21486.78;6272908;22;20406;-75
2021/09/07 11:13:25;;;;;;;2.30;1.43;;;;;;;30.47;100.00;-21501.72;6276265;22;20371;-75
2021/09/07 11:15:53;;;;;;;4.70;1.30;;;;;;;30.58;100.00;-21504.53;6249751;22;20488;-75
2021/09/07 11:18:24;;;;;;;1.83;1.33;;;;;;;30.34;100.00;-21498.22;6250155;22;20399;-75
2021/09/07 11:20:53;;;;;;;1.87;1.73;;;;;;;30.40;100.00;-21499.69;6276567;22;20387;-75
2021/09/07 11:23:23;;;;;;;1.10;0.80;;;;;;;30.36;100.00;-21498.75;6276745;22;20786;-74
2021/09/07 11:25:57;;;;;;;1.17;0.90;;;;;;;30.84;100.00;-21511.28;6223708;22;20697;-74
2021/09/07 11:28:24;;;;;;;1.20;0.90;;;;;;;30.58;100.00;-21504.53;6249877;22;20741;-74
2021/09/07 11:30:52;;;;;;;1.40;1.00;;;;;;;30.87;100.00;-21512.06;6249556;22;20402;-75
2021/09/07 11:33:23;;;;;;;1.03;0.93;;;;;;;30.64;100.00;-21506.03;6276692;22;20368;-74
2021/09/07 11:35:52;;;;;;;1.10;0.60;;;;;;;30.33;100.00;-21497.94;6277492;22;20769;-74